Mabank, Texas
Current Conditions -  °F | °C
As of 7:35 AM on Friday 19 Dec 2014 (Local Time) from KF44 Reporting Station
Light Rain Light Rain  
Wind Chill: 40°   Ceiling: 500
Heat Index: 45°   Visibility: 7mi
Dew Point: 45°   Wind: 8mph
Humidity: 100%   Direction: 20°NNE
Pressure: 30.16"   Gusts: NA
Location:  32.37°N, 96.1°W
Report Text: KF44 191335Z AUTO 02007KT 7SM -RA OVC005 07/07 A3016 RMK AO2 P0001
Loading
Personal Weather Stations






























Interactive Weather Map New forecast layout! Learn more

10-Day Weather Forecast

Advertisements
Track Severe Weather on mobile